createdAt,value
2022-08-29T00:01:21.279Z,79.5
2022-08-29T00:06:27.481Z,80.0
2022-08-29T00:11:32.713Z,80.5
2022-08-29T00:16:39.009Z,80.5
2022-08-29T00:21:44.175Z,80.5
2022-08-29T00:26:50.389Z,80.5
2022-08-29T00:31:56.626Z,80.5
2022-08-29T00:37:02.812Z,80.5
2022-08-29T00:42:09.038Z,80.5
2022-08-29T00:47:15.244Z,80.5
2022-08-29T00:52:21.461Z,81.0
2022-08-29T00:57:27.678Z,81.0
2022-08-29T01:02:38.491Z,81.0
2022-08-29T01:07:40.828Z,81.5
2022-08-29T01:12:46.316Z,81.5
2022-08-29T01:17:52.521Z,81.5
2022-08-29T01:22:58.734Z,81.5
2022-08-29T01:28:04.949Z,81.5
2022-08-29T01:33:11.165Z,81.5
2022-08-29T01:38:17.364Z,82.0
2022-08-29T01:43:23.571Z,82.0
2022-08-29T01:48:29.777Z,82.0
2022-08-29T01:53:35.990Z,82.0
2022-08-29T01:58:42.192Z,82.0
2022-08-29T02:03:48.410Z,82.0
2022-08-29T02:08:53.641Z,82.5
2022-08-29T02:13:59.845Z,82.5
2022-08-29T02:19:06.062Z,83.0
2022-08-29T02:24:24.937Z,83.0
2022-08-29T02:29:18.472Z,83.5
2022-08-29T02:34:24.682Z,83.5
2022-08-29T02:44:37.098Z,84.5
2022-08-29T02:49:43.309Z,84.5
2022-08-29T02:54:49.527Z,84.5
2022-08-29T02:59:55.729Z,84.5
2022-08-29T03:05:01.941Z,84.5
2022-08-29T03:10:08.155Z,84.5
2022-08-29T03:15:14.349Z,84.0
2022-08-29T03:20:20.559Z,84.5
2022-08-29T03:25:26.767Z,84.5
2022-08-29T03:30:32.975Z,85.0
2022-08-29T03:35:39.242Z,85.0
2022-08-29T03:40:45.387Z,85.0
2022-08-29T03:45:51.595Z,85.5
2022-08-29T03:50:57.805Z,85.5
2022-08-29T03:56:04.020Z,86.0
2022-08-29T04:01:09.259Z,86.0
2022-08-29T04:06:15.457Z,86.5
2022-08-29T04:11:20.694Z,86.0
2022-08-29T04:16:30.463Z,86.0
2022-08-29T04:21:33.115Z,86.0
2022-08-29T04:26:39.328Z,86.0
2022-08-29T04:31:45.609Z,86.0
2022-08-29T04:36:51.737Z,86.0
2022-08-29T04:41:57.948Z,85.5
2022-08-29T04:47:04.159Z,85.0
2022-08-29T04:52:10.361Z,85.5
2022-08-29T04:57:16.573Z,85.5
2022-08-29T05:02:22.852Z,86.0
2022-08-29T05:07:28.985Z,86.0
2022-08-29T05:12:35.195Z,86.0
2022-08-29T05:17:41.406Z,86.5
2022-08-29T05:22:47.607Z,87.5
2022-08-29T05:27:53.816Z,87.5
2022-08-29T05:33:00.045Z,88.0
2022-08-29T05:38:14.759Z,88.5
2022-08-29T05:43:12.438Z,89.0
2022-08-29T05:48:18.649Z,89.0
2022-08-29T05:53:24.864Z,89.5
2022-08-29T05:58:30.090Z,90.0
2022-08-29T06:03:36.509Z,90.0
2022-08-29T06:08:41.537Z,90.5
2022-08-29T06:13:47.747Z,90.5
2022-08-29T06:18:53.959Z,90.5
2022-08-29T06:24:00.161Z,91.0
2022-08-29T06:29:06.368Z,91.0
2022-08-29T06:34:12.584Z,91.0
2022-08-29T06:39:18.799Z,91.5
2022-08-29T06:44:25.021Z,91.5
2022-08-29T06:49:31.221Z,91.5
2022-08-29T06:54:37.439Z,91.0
2022-08-29T06:59:43.657Z,91.0
2022-08-29T07:04:49.860Z,91.0
2022-08-29T07:09:56.081Z,90.5
2022-08-29T07:15:02.302Z,90.5
2022-08-29T07:20:08.497Z,90.5
2022-08-29T07:25:14.733Z,90.0
2022-08-29T07:30:20.920Z,89.5
2022-08-29T07:35:30.324Z,88.5
2022-08-29T07:40:33.375Z,87.5
2022-08-29T07:45:39.600Z,87.0
2022-08-29T07:50:45.765Z,86.5
2022-08-29T07:55:50.985Z,86.0
2022-08-29T08:00:57.193Z,86.0
2022-08-29T08:06:03.936Z,85.0
2022-08-29T08:11:08.645Z,83.0
2022-08-29T08:16:14.939Z,82.0
2022-08-29T08:21:21.051Z,81.0
2022-08-29T08:26:27.261Z,78.5
2022-08-29T08:31:33.506Z,78.0
2022-08-29T08:36:41.369Z,75.5
2022-08-29T08:41:45.887Z,74.5
2022-08-29T08:46:52.095Z,73.0
2022-08-29T08:51:58.312Z,71.5
2022-08-29T08:57:04.516Z,71.0
2022-08-29T09:02:10.790Z,70.0
2022-08-29T09:07:16.943Z,68.5
2022-08-29T09:12:23.154Z,69.0
2022-08-29T09:17:29.352Z,68.5
2022-08-29T09:22:35.559Z,68.0
2022-08-29T09:27:41.773Z,68.0
2022-08-29T09:32:47.981Z,68.0
2022-08-29T09:37:54.187Z,68.0
2022-08-29T09:43:00.394Z,67.5
2022-08-29T09:48:06.605Z,66.5
2022-08-29T09:53:25.108Z,66.0
2022-08-29T10:03:24.261Z,66.0
2022-08-29T10:08:30.478Z,66.0
2022-08-29T10:13:35.703Z,66.0
2022-08-29T10:18:41.911Z,66.0
2022-08-29T10:23:48.120Z,66.0
2022-08-29T10:28:54.367Z,66.5
2022-08-29T10:34:00.545Z,66.5
2022-08-29T10:39:06.754Z,66.5
2022-08-29T10:44:13.037Z,66.5
2022-08-29T10:49:19.170Z,66.5
2022-08-29T10:54:25.381Z,65.5
2022-08-29T10:59:31.592Z,64.5
2022-08-29T11:04:37.797Z,64.0
2022-08-29T11:09:44.009Z,63.5
2022-08-29T11:14:50.210Z,64.0
2022-08-29T11:19:56.426Z,63.5
2022-08-29T11:25:02.633Z,62.5
2022-08-29T11:30:08.847Z,62.5
2022-08-29T11:35:15.081Z,62.5
2022-08-29T11:40:47.365Z,62.5
2022-08-29T11:45:35.448Z,63.0
2022-08-29T11:50:33.686Z,62.5
2022-08-29T11:55:39.890Z,62.5
2022-08-29T12:00:45.127Z,62.5
2022-08-29T12:05:51.332Z,62.0
2022-08-29T12:10:56.570Z,61.5
2022-08-29T12:16:02.905Z,62.5
2022-08-29T12:21:09.017Z,62.0
2022-08-29T12:26:22.514Z,62.0
2022-08-29T12:31:21.493Z,62.0
2022-08-29T12:36:27.622Z,61.5
2022-08-29T12:41:33.825Z,61.5
2022-08-29T12:46:40.094Z,61.0
2022-08-29T12:51:46.250Z,60.5
2022-08-29T12:56:52.457Z,60.5
2022-08-29T13:01:58.697Z,59.5
2022-08-29T13:07:04.877Z,59.5
2022-08-29T13:12:11.084Z,60.0
2022-08-29T13:17:17.292Z,59.5
2022-08-29T13:22:23.501Z,59.0
2022-08-29T13:27:29.711Z,59.0
2022-08-29T13:32:35.928Z,58.0
2022-08-29T13:37:42.133Z,58.0
2022-08-29T13:42:48.347Z,57.0
2022-08-29T13:47:54.555Z,56.0
2022-08-29T13:53:00.761Z,56.0
2022-08-29T13:58:06.002Z,56.5
2022-08-29T14:03:12.362Z,56.0
2022-08-29T14:08:17.582Z,56.0
2022-08-29T14:13:23.660Z,54.0
2022-08-29T14:18:32.680Z,54.5
2022-08-29T14:23:36.092Z,54.5
2022-08-29T14:28:46.108Z,54.5
2022-08-29T14:33:51.673Z,54.5
2022-08-29T14:38:54.721Z,54.5
2022-08-29T14:44:00.937Z,54.0
2022-08-29T14:49:07.148Z,52.5
2022-08-29T14:54:13.362Z,51.5
2022-08-29T14:59:19.585Z,52.0
2022-08-29T15:04:37.092Z,52.0
2022-08-29T15:09:32.000Z,51.5
2022-08-29T15:14:38.214Z,52.5
2022-08-29T15:20:31.889Z,52.0
2022-08-29T15:24:50.664Z,52.0
2022-08-29T15:29:56.869Z,52.0
2022-08-29T15:35:02.108Z,51.5
2022-08-29T15:40:12.811Z,51.5
2022-08-29T15:45:14.537Z,51.5
2022-08-29T15:50:20.755Z,51.5
2022-08-29T15:55:26.006Z,51.0
2022-08-29T16:00:32.214Z,51.0
2022-08-29T16:05:37.463Z,50.5
2022-08-29T16:10:43.679Z,50.0
2022-08-29T16:15:49.975Z,49.5
2022-08-29T16:20:56.781Z,49.5
2022-08-29T16:26:02.586Z,0.0
2022-08-29T16:31:08.862Z,50.0
2022-08-29T16:36:14.997Z,50.0
2022-08-29T16:41:21.214Z,50.0
2022-08-29T16:46:27.487Z,50.5
2022-08-29T16:51:33.642Z,50.5
2022-08-29T16:56:39.937Z,50.0
2022-08-29T17:01:46.203Z,50.0
2022-08-29T17:06:52.401Z,50.0
2022-08-29T17:11:59.968Z,50.0
2022-08-29T17:17:04.871Z,50.0
2022-08-29T17:22:10.960Z,50.0
2022-08-29T17:27:21.266Z,50.0
2022-08-29T17:32:23.392Z,50.0
2022-08-29T17:37:29.609Z,50.0
2022-08-29T17:42:35.822Z,50.0
2022-08-29T17:47:42.276Z,0.0
2022-08-29T17:52:47.514Z,51.5
2022-08-29T17:57:53.727Z,52.0
2022-08-29T18:03:00.107Z,52.5
2022-08-29T18:08:06.148Z,53.0
2022-08-29T18:13:12.360Z,54.0
2022-08-29T18:18:18.722Z,54.5
2022-08-29T18:23:24.777Z,55.5
2022-08-29T18:28:30.990Z,56.0
2022-08-29T18:33:57.352Z,56.5
2022-08-29T18:38:43.408Z,57.0
2022-08-29T18:43:49.631Z,58.0
2022-08-29T18:48:55.825Z,58.5
2022-08-29T18:54:02.040Z,59.0
2022-08-29T18:59:08.240Z,59.5
2022-08-29T19:04:14.455Z,60.0
2022-08-29T19:09:20.656Z,60.5
2022-08-29T19:14:26.867Z,61.0
2022-08-29T19:19:33.079Z,62.0
2022-08-29T19:24:39.287Z,62.5
2022-08-29T19:29:45.495Z,63.0
2022-08-29T19:34:51.698Z,64.0
2022-08-29T19:39:57.000Z,64.0
2022-08-29T19:45:03.369Z,64.0
2022-08-29T19:50:08.387Z,64.5
2022-08-29T19:55:14.593Z,65.0
2022-08-29T20:00:19.831Z,65.5
2022-08-29T20:05:26.039Z,66.0
2022-08-29T20:10:32.248Z,66.5
2022-08-29T20:15:38.462Z,66.5
2022-08-29T20:20:44.661Z,67.0
2022-08-29T20:25:50.879Z,67.5
2022-08-29T20:30:57.083Z,68.0
2022-08-29T20:36:03.295Z,69.0
2022-08-29T20:41:09.501Z,69.5
2022-08-29T20:46:15.737Z,70.0
2022-08-29T20:51:21.914Z,70.5
2022-08-29T20:56:28.121Z,70.5
2022-08-29T21:01:34.417Z,71.0
2022-08-29T21:06:40.541Z,71.5
2022-08-29T21:11:46.751Z,72.5
2022-08-29T21:16:52.958Z,73.5
2022-08-29T21:21:59.162Z,73.5
2022-08-29T21:27:05.372Z,74.0
2022-08-29T21:32:11.577Z,74.0
2022-08-29T21:37:17.789Z,74.0
2022-08-29T21:42:23.997Z,74.5
2022-08-29T21:47:29.233Z,74.5
2022-08-29T21:52:35.444Z,75.5
2022-08-29T21:57:40.685Z,75.5
2022-08-29T22:02:46.940Z,76.0
2022-08-29T22:07:53.096Z,76.5
2022-08-29T22:12:59.309Z,77.0
2022-08-29T22:18:05.518Z,77.0
2022-08-29T22:23:11.725Z,77.5
2022-08-29T22:28:17.941Z,78.0
2022-08-29T22:33:24.144Z,78.5
2022-08-29T22:38:30.357Z,79.0
2022-08-29T22:43:36.557Z,79.0
2022-08-29T22:48:42.767Z,79.5
2022-08-29T22:53:48.984Z,80.0
2022-08-29T22:58:55.183Z,80.0
2022-08-29T23:04:01.397Z,80.5
2022-08-29T23:09:07.598Z,81.0
2022-08-29T23:14:13.806Z,81.0
2022-08-29T23:19:20.022Z,81.5
2022-08-29T23:24:26.238Z,82.0
2022-08-29T23:29:32.437Z,82.0
2022-08-29T23:34:38.639Z,82.0
2022-08-29T23:39:44.855Z,82.5
2022-08-29T23:44:50.089Z,82.5
2022-08-29T23:49:56.296Z,83.0
2022-08-29T23:55:02.503Z,83.0
